Time;durP1;ratioP1;P1;durP2;ratioP2;P2;SDS_P1;SDS_P2;PMS_P1;PMS_P2;Temp;Humidity;BMP_temperature;BMP_pressure;BME280_temperature;BME280_humidity;BME280_pressure;Samples;Min_cycle;Max_cycle;Signal;HPM_P1;HPM_P2
2022/05/26 00:01:19;;;;;;;3.73;3.53;;;18.00;94.50;;;;;;5053903;28;20518;-68
2022/05/26 00:03:46;;;;;;;3.40;3.20;;;18.00;94.70;;;;;;5054192;28;20939;-67
2022/05/26 00:06:15;;;;;;;3.50;3.20;;;18.10;94.30;;;;;;5051076;28;20436;-68
2022/05/26 00:08:41;;;;;;;2.87;2.77;;;18.10;94.50;;;;;;5047199;28;20437;-68
2022/05/26 00:11:10;;;;;;;3.23;3.00;;;18.00;94.70;;;;;;5033603;28;20809;-74
2022/05/26 00:13:37;;;;;;;3.13;2.83;;;18.00;94.70;;;;;;5045691;28;20189;-68
2022/05/26 00:16:04;;;;;;;3.60;3.40;;;18.00;95.80;;;;;;5055053;28;20922;-67
2022/05/26 00:18:30;;;;;;;3.57;3.37;;;18.00;95.90;;;;;;5051916;28;20463;-68
2022/05/26 00:20:55;;;;;;;3.50;3.30;;;18.00;96.80;;;;;;5054096;28;20471;-67
2022/05/26 00:23:21;;;;;;;2.90;2.80;;;18.00;97.00;;;;;;5052782;28;20224;-68
2022/05/26 00:25:47;;;;;;;5.63;3.00;;;18.00;95.70;;;;;;5053971;28;20269;-68
2022/05/26 00:28:12;;;;;;;3.57;3.30;;;17.90;96.40;;;;;;5053743;28;20582;-68
2022/05/26 00:30:38;;;;;;;3.20;3.03;;;18.00;97.30;;;;;;5055027;28;20185;-68
2022/05/26 00:33:06;;;;;;;3.03;2.83;;;18.00;97.20;;;;;;5054653;28;20508;-68
2022/05/26 00:35:34;;;;;;;4.47;2.87;;;18.00;96.50;;;;;;5051241;28;20436;-67
2022/05/26 00:38:05;;;;;;;3.50;3.20;;;17.90;96.50;;;;;;5053815;28;21476;-67
2022/05/26 00:40:31;;;;;;;3.20;2.90;;;17.90;97.50;;;;;;5053138;28;20428;-68
2022/05/26 00:42:58;;;;;;;3.43;3.23;;;17.90;98.40;;;;;;5052853;28;20412;-68
2022/05/26 00:45:24;;;;;;;2.63;2.53;;;18.00;96.30;;;;;;5053491;28;20428;-68
2022/05/26 00:47:51;;;;;;;3.20;3.00;;;18.00;97.60;;;;;;5053528;28;20444;-68
2022/05/26 00:50:25;;;;;;;3.20;2.93;;;18.00;96.50;;;;;;5052645;28;20471;-67
2022/05/26 00:52:57;;;;;;;3.23;3.03;;;18.00;96.50;;;;;;5053948;28;20484;-68
2022/05/26 00:55:33;;;;;;;4.33;3.00;;;18.00;96.30;;;;;;5068117;28;20428;-68
2022/05/26 00:58:01;;;;;;;3.83;3.63;;;18.00;96.60;;;;;;5057994;28;20485;-68
2022/05/26 01:00:30;;;;;;;3.80;3.60;;;18.10;96.10;;;;;;5070171;28;21102;-68
2022/05/26 01:03:21;;;;;;;3.67;3.40;;;18.10;96.30;;;;;;5052700;28;20470;-67
2022/05/26 01:05:52;;;;;;;4.27;4.00;;;18.00;96.30;;;;;;5052736;28;20987;-68
2022/05/26 01:08:25;;;;;;;3.90;3.37;;;18.10;97.40;;;;;;5053875;28;20851;-68
2022/05/26 01:10:53;;;;;;;3.67;3.47;;;18.00;97.00;;;;;;5054393;28;20430;-68
2022/05/26 01:13:20;;;;;;;4.00;3.30;;;18.00;97.20;;;;;;5055783;28;20953;-67
2022/05/26 01:15:56;;;;;;;4.13;3.93;;;18.00;97.80;;;;;;5053387;28;20442;-67
2022/05/26 01:18:39;;;;;;;3.50;3.30;;;18.00;98.60;;;;;;5054758;28;20468;-67
2022/05/26 01:21:21;;;;;;;3.33;3.13;;;18.10;97.50;;;;;;5055494;28;20521;-67
2022/05/26 01:24:05;;;;;;;3.30;3.20;;;18.10;97.40;;;;;;5053150;28;20877;-67
2022/05/26 01:26:53;;;;;;;6.47;3.60;;;18.10;96.80;;;;;;5052243;28;20397;-67
2022/05/26 01:29:30;;;;;;;3.87;3.57;;;18.10;96.60;;;;;;5054448;28;20462;-68
2022/05/26 01:32:11;;;;;;;4.17;3.97;;;18.10;96.50;;;;;;5052884;28;20833;-68
2022/05/26 01:34:59;;;;;;;3.93;3.73;;;18.00;96.50;;;;;;5052572;28;20510;-67
2022/05/26 01:37:54;;;;;;;3.70;3.50;;;18.00;97.60;;;;;;5052092;28;20837;-67
2022/05/26 01:40:36;;;;;;;4.50;4.10;;;17.90;96.70;;;;;;5050184;28;20448;-68
2022/05/26 01:43:27;;;;;;;3.80;3.60;;;17.90;97.80;;;;;;5051770;28;20401;-68
2022/05/26 01:46:16;;;;;;;4.30;4.00;;;17.80;97.00;;;;;;5053406;28;20909;-67
2022/05/26 01:49:08;;;;;;;4.67;3.90;;;17.90;99.10;;;;;;5052945;28;20452;-67
2022/05/26 01:51:40;;;;;;;4.10;3.73;;;17.90;98.60;;;;;;5041927;28;20447;-67
2022/05/26 01:54:36;;;;;;;4.83;3.20;;;17.90;97.80;;;;;;5053522;28;20471;-67
2022/05/26 01:57:12;;;;;;;3.80;3.50;;;17.90;97.90;;;;;;5060396;28;20438;-68
2022/05/26 01:59:44;;;;;;;3.23;2.90;;;17.90;98.00;;;;;;5053830;28;20496;-68
2022/05/26 02:02:18;;;;;;;3.23;3.03;;;17.90;97.20;;;;;;5050245;28;20578;-74
2022/05/26 02:04:53;;;;;;;4.00;3.60;;;17.80;97.40;;;;;;5051428;28;20454;-67
2022/05/26 02:07:42;;;;;;;3.90;3.60;;;17.70;98.20;;;;;;5050722;28;20439;-68
2022/05/26 02:10:32;;;;;;;3.53;3.33;;;17.70;99.20;;;;;;5052192;28;20797;-68
2022/05/26 02:13:06;;;;;;;5.20;3.77;;;17.70;98.70;;;;;;5052114;28;20566;-68
2022/05/26 02:15:47;;;;;;;3.97;3.77;;;17.80;98.60;;;;;;5031145;28;21048;-67
2022/05/26 02:18:27;;;;;;;4.23;3.83;;;17.80;99.20;;;;;;5046789;28;20455;-74
2022/05/26 02:20:56;;;;;;;4.50;4.30;;;17.80;99.70;;;;;;5052694;28;20495;-68
2022/05/26 02:23:35;;;;;;;3.90;3.60;;;17.80;99.00;;;;;;5051134;28;20436;-68
2022/05/26 02:26:03;;;;;;;3.83;3.53;;;17.80;98.70;;;;;;5051274;28;20440;-67
2022/05/26 02:29:51;;;;;;;3.80;3.60;;;17.80;99.20;;;;;;5046539;28;20848;-68
2022/05/26 02:31:21;;;;;;;4.47;4.17;;;17.90;99.90;;;;;;5050336;28;20527;-67
2022/05/26 02:33:47;;;;;;;3.80;3.50;;;17.90;99.40;;;;;;5055483;28;20471;-67
2022/05/26 02:36:14;;;;;;;3.20;3.00;;;17.90;99.30;;;;;;5051752;28;20444;-75
2022/05/26 02:38:39;;;;;;;3.70;3.40;;;17.90;98.70;;;;;;5049806;28;20506;-68
2022/05/26 02:41:05;;;;;;;4.97;4.67;;;17.90;99.80;;;;;;5051414;28;20908;-67
2022/05/26 02:43:33;;;;;;;3.60;3.30;;;17.90;99.90;;;;;;5050072;28;20182;-68
2022/05/26 02:46:17;;;;;;;3.50;3.40;;;17.90;99.90;;;;;;5052130;28;20653;-67
2022/05/26 02:48:58;;;;;;;3.50;3.30;;;17.90;99.90;;;;;;5050382;28;20444;-67
2022/05/26 02:51:28;;;;;;;3.33;3.03;;;17.90;99.90;;;;;;5051599;28;20477;-68
2022/05/26 02:54:04;;;;;;;4.57;3.10;;;17.90;99.80;;;;;;5053983;28;20563;-67
2022/05/26 02:56:40;;;;;;;3.63;3.50;;;17.90;99.30;;;;;;5041425;28;20919;-68
2022/05/26 02:59:30;;;;;;;3.70;3.50;;;17.90;99.80;;;;;;5051160;28;20470;-67
2022/05/26 03:02:13;;;;;;;4.00;3.70;;;17.80;99.80;;;;;;5020954;28;20435;-68
2022/05/26 03:04:46;;;;;;;3.70;3.40;;;17.70;99.90;;;;;;5050712;28;20443;-68
2022/05/26 03:07:18;;;;;;;3.57;3.37;;;17.70;99.90;;;;;;5049985;28;20428;-68
2022/05/26 03:09:45;;;;;;;4.67;3.60;;;17.70;99.90;;;;;;5055209;28;20480;-68
2022/05/26 03:12:24;;;;;;;3.70;3.40;;;17.70;99.90;;;;;;5051811;28;20469;-68
2022/05/26 03:14:50;;;;;;;4.27;3.63;;;17.70;99.90;;;;;;5055033;28;20557;-67
2022/05/26 03:17:15;;;;;;;3.80;3.50;;;17.70;99.90;;;;;;5050503;28;20527;-75
2022/05/26 03:19:41;;;;;;;3.67;3.33;;;17.60;99.90;;;;;;5032171;28;20447;-68
2022/05/26 03:22:07;;;;;;;4.03;3.73;;;17.60;99.90;;;;;;5055777;28;20235;-67
2022/05/26 03:24:33;;;;;;;3.87;3.33;;;17.50;99.90;;;;;;5053642;28;20185;-68
2022/05/26 03:26:59;;;;;;;3.60;3.30;;;17.40;99.90;;;;;;5054601;28;20447;-67
2022/05/26 03:29:24;;;;;;;3.97;3.60;;;17.40;99.90;;;;;;5050518;28;20177;-67
2022/05/26 03:31:50;;;;;;;8.57;3.53;;;17.50;99.90;;;;;;5051677;28;20416;-68
2022/05/26 03:42:29;;;;;;;4.13;3.83;;;17.50;99.90;;;;;;5051392;28;20439;-67
2022/05/26 03:44:57;;;;;;;3.77;3.57;;;17.50;99.90;;;;;;5043167;28;20528;-67
2022/05/26 03:47:22;;;;;;;4.40;4.00;;;17.50;99.90;;;;;;5031007;28;20182;-68
2022/05/26 03:49:49;;;;;;;4.37;4.17;;;17.60;99.90;;;;;;5039129;28;20496;-68
2022/05/26 03:52:15;;;;;;;4.50;4.30;;;17.50;99.90;;;;;;5050161;28;20615;-68
2022/05/26 03:54:41;;;;;;;4.50;4.10;;;17.60;99.90;;;;;;5049564;28;21009;-67
2022/05/26 03:57:07;;;;;;;4.47;4.07;;;17.60;99.90;;;;;;5051124;28;20424;-68
2022/05/26 03:59:33;;;;;;;4.03;3.73;;;17.50;99.90;;;;;;5050253;28;20196;-68
2022/05/26 04:01:59;;;;;;;4.70;4.30;;;17.50;99.90;;;;;;5053937;28;20829;-68
2022/05/26 04:04:25;;;;;;;4.33;4.00;;;17.60;99.90;;;;;;5049934;28;20505;-68
2022/05/26 04:06:51;;;;;;;4.33;4.13;;;17.60;99.90;;;;;;5050362;28;20924;-68
2022/05/26 04:09:17;;;;;;;3.50;3.30;;;17.50;99.90;;;;;;5050341;28;20174;-68
2022/05/26 04:11:43;;;;;;;5.30;3.70;;;17.60;99.90;;;;;;5050358;28;20431;-68
2022/05/26 04:14:09;;;;;;;4.10;3.60;;;17.60;99.90;;;;;;5049218;28;20210;-67
2022/05/26 04:16:35;;;;;;;3.60;3.40;;;17.70;99.90;;;;;;5052737;28;20466;-72
2022/05/26 04:19:02;;;;;;;4.03;3.57;;;17.60;99.90;;;;;;5050418;28;20444;-67
2022/05/26 04:21:27;;;;;;;4.13;3.80;;;17.60;99.90;;;;;;5050253;28;20464;-66
2022/05/26 04:23:53;;;;;;;3.67;3.47;;;17.70;99.90;;;;;;5052361;28;20950;-67
2022/05/26 04:26:20;;;;;;;3.70;3.50;;;17.70;99.90;;;;;;5053703;28;20185;-74
2022/05/26 04:28:45;;;;;;;3.90;3.60;;;17.60;99.90;;;;;;5054618;28;20213;-67
2022/05/26 04:31:11;;;;;;;4.63;3.83;;;17.60;99.90;;;;;;5056057;28;20516;-67
2022/05/26 04:33:37;;;;;;;4.77;4.47;;;17.70;99.90;;;;;;5060709;28;20197;-67
2022/05/26 04:36:04;;;;;;;4.37;4.07;;;17.60;99.90;;;;;;5060718;28;20189;-67
2022/05/26 04:38:30;;;;;;;5.10;3.90;;;17.70;99.90;;;;;;5054394;28;20538;-67
2022/05/26 04:41:01;;;;;;;4.77;4.40;;;17.70;99.90;;;;;;5053213;28;20435;-67
2022/05/26 04:43:27;;;;;;;4.67;4.27;;;17.70;99.90;;;;;;5054230;28;20400;-67
2022/05/26 04:45:53;;;;;;;4.60;4.30;;;17.70;99.90;;;;;;5053917;28;20858;-67
2022/05/26 04:48:21;;;;;;;4.97;4.60;;;17.60;99.90;;;;;;5054275;28;20478;-67
2022/05/26 04:50:51;;;;;;;4.63;4.30;;;17.60;99.90;;;;;;5054317;28;20494;-66
2022/05/26 04:53:18;;;;;;;5.07;4.40;;;17.70;99.90;;;;;;5053373;28;20862;-67
2022/05/26 04:55:43;;;;;;;4.90;4.60;;;17.70;99.90;;;;;;5054157;28;20501;-67
2022/05/26 04:58:09;;;;;;;4.83;4.43;;;17.70;99.90;;;;;;5053795;28;20428;-66
2022/05/26 05:00:35;;;;;;;4.90;4.50;;;17.70;99.90;;;;;;5053699;28;20416;-67
2022/05/26 05:03:01;;;;;;;5.50;5.10;;;17.70;99.90;;;;;;5053163;28;20185;-67
2022/05/26 05:05:27;;;;;;;4.63;4.33;;;17.70;99.90;;;;;;5051831;28;20424;-67
2022/05/26 05:07:53;;;;;;;4.93;4.60;;;17.70;99.90;;;;;;5053160;28;20204;-67
2022/05/26 05:10:18;;;;;;;4.90;4.50;;;17.60;99.90;;;;;;5054284;28;20261;-67
2022/05/26 05:12:48;;;;;;;5.17;4.83;;;17.60;99.90;;;;;;5053519;28;20231;-67
2022/05/26 05:15:22;;;;;;;5.07;4.77;;;17.50;99.90;;;;;;5053024;28;20458;-67
2022/05/26 05:17:47;;;;;;;4.97;4.50;;;17.60;99.90;;;;;;5053526;28;20420;-67
2022/05/26 05:20:13;;;;;;;4.23;4.00;;;17.50;99.90;;;;;;5054264;28;20550;-67
2022/05/26 05:22:50;;;;;;;4.90;4.60;;;17.50;99.90;;;;;;5053292;28;20177;-67
2022/05/26 05:25:26;;;;;;;5.23;4.87;;;17.50;99.90;;;;;;5054041;28;20165;-67
2022/05/26 05:27:55;;;;;;;4.83;4.43;;;17.40;99.90;;;;;;5054006;28;20458;-67
2022/05/26 05:30:28;;;;;;;4.70;4.30;;;17.40;99.90;;;;;;5055735;28;20490;-66
2022/05/26 05:33:05;;;;;;;5.50;5.10;;;17.40;99.90;;;;;;5056659;28;20549;-67
2022/05/26 05:35:44;;;;;;;4.60;4.30;;;17.40;99.90;;;;;;5051968;28;20455;-67
2022/05/26 05:38:09;;;;;;;4.93;4.57;;;17.40;99.90;;;;;;5053513;28;20471;-67
2022/05/26 05:40:36;;;;;;;5.97;5.57;;;17.40;99.90;;;;;;5051575;28;20443;-67
2022/05/26 05:43:03;;;;;;;6.10;5.67;;;17.40;99.90;;;;;;5052902;28;20272;-67
2022/05/26 05:45:28;;;;;;;6.67;6.17;;;17.40;99.90;;;;;;5052789;28;20424;-67
2022/05/26 05:47:54;;;;;;;8.00;7.20;;;17.40;99.90;;;;;;5053395;28;20578;-67
2022/05/26 05:50:20;;;;;;;7.53;6.93;;;17.40;99.90;;;;;;5055580;28;20197;-67
2022/05/26 05:52:46;;;;;;;7.67;6.97;;;17.50;99.90;;;;;;5051972;28;20177;-67
2022/05/26 05:55:11;;;;;;;9.00;8.10;;;17.50;99.90;;;;;;5051943;28;20213;-67
2022/05/26 05:57:37;;;;;;;7.70;7.10;;;17.50;99.90;;;;;;5052042;28;20312;-68
2022/05/26 06:00:05;;;;;;;9.90;9.00;;;17.60;99.90;;;;;;5053038;28;20634;-67
2022/05/26 06:02:31;;;;;;;9.30;8.40;;;17.60;99.90;;;;;;5055788;28;20192;-67
2022/05/26 06:04:57;;;;;;;10.90;9.90;;;17.60;99.90;;;;;;5055273;28;20443;-67
2022/05/26 06:07:23;;;;;;;9.40;8.57;;;17.60;99.90;;;;;;5053110;28;20415;-67
2022/05/26 06:09:50;;;;;;;11.23;10.13;;;17.60;99.90;;;;;;5055426;28;20431;-68
2022/05/26 06:12:16;;;;;;;10.53;9.50;;;17.50;99.90;;;;;;5041432;28;20269;-67
2022/05/26 06:14:43;;;;;;;11.53;10.53;;;17.60;99.90;;;;;;5032249;28;20868;-67
2022/05/26 06:17:13;;;;;;;11.07;10.00;;;17.50;99.90;;;;;;5049651;28;20444;-67
2022/05/26 06:19:40;;;;;;;12.43;11.10;;;17.50;99.90;;;;;;5054125;28;20527;-68
2022/05/26 06:22:10;;;;;;;12.57;11.33;;;17.40;99.90;;;;;;5052459;28;20542;-68
2022/05/26 06:24:38;;;;;;;12.17;10.97;;;17.50;99.90;;;;;;5052144;28;20473;-68
2022/05/26 06:29:49;;;;;;;11.50;10.50;;;17.50;99.90;;;;;;5051435;28;20519;-68
2022/05/26 06:29:51;;;;;;;12.10;10.90;;;17.50;99.90;;;;;;5049640;28;20440;-69
2022/05/26 06:37:51;;;;;;;12.87;11.60;;;17.60;99.90;;;;;;5048490;28;20416;-68
2022/05/26 06:40:17;;;;;;;13.20;10.73;;;17.60;99.90;;;;;;5052107;28;20537;-68
2022/05/26 06:42:47;;;;;;;12.73;11.17;;;17.70;99.90;;;;;;5055183;28;20260;-70
2022/05/26 06:45:20;;;;;;;12.43;11.13;;;17.70;99.90;;;;;;5044394;28;20910;-71
2022/05/26 06:47:46;;;;;;;12.60;10.70;;;17.80;99.90;;;;;;5049733;28;20493;-71
2022/05/26 06:50:12;;;;;;;13.90;12.00;;;17.80;99.90;;;;;;5051617;28;20876;-71
2022/05/26 06:52:38;;;;;;;12.60;11.30;;;17.80;99.90;;;;;;5049514;28;20178;-70
2022/05/26 06:55:05;;;;;;;13.40;10.10;;;17.90;99.90;;;;;;5051171;28;20471;-70
2022/05/26 06:57:31;;;;;;;12.20;10.33;;;18.00;99.90;;;;;;5048666;28;20414;-71
2022/05/26 06:59:57;;;;;;;12.43;11.17;;;18.10;99.90;;;;;;5051458;28;20428;-70
2022/05/26 07:02:24;;;;;;;13.60;11.30;;;18.10;99.90;;;;;;5051431;28;20182;-70
2022/05/26 07:04:50;;;;;;;15.60;11.77;;;18.20;99.90;;;;;;5053492;28;20424;-70
2022/05/26 07:07:16;;;;;;;13.77;12.10;;;18.20;99.90;;;;;;5050123;28;20925;-74
2022/05/26 07:09:42;;;;;;;13.20;11.57;;;18.30;99.90;;;;;;5052836;28;20179;-71
2022/05/26 07:12:09;;;;;;;12.60;11.00;;;18.40;99.90;;;;;;5051966;28;20182;-72
2022/05/26 07:14:35;;;;;;;29.87;25.20;;;18.70;99.90;;;;;;5051226;28;20468;-72
2022/05/26 07:17:01;;;;;;;19.07;16.77;;;18.80;99.90;;;;;;5046269;28;20437;-70
2022/05/26 07:19:27;;;;;;;93.40;68.10;;;19.00;99.90;;;;;;5046573;28;20190;-71
2022/05/26 07:21:52;;;;;;;24.50;19.70;;;19.00;99.90;;;;;;5062856;28;20232;-70
2022/05/26 07:24:20;;;;;;;18.13;13.77;;;19.20;99.90;;;;;;5052390;28;20186;-71
2022/05/26 07:26:48;;;;;;;14.23;12.80;;;19.20;99.90;;;;;;5047509;28;20181;-72
2022/05/26 07:29:15;;;;;;;14.60;12.63;;;19.30;99.90;;;;;;5050003;28;20416;-71
2022/05/26 07:31:41;;;;;;;81.77;73.87;;;19.40;99.90;;;;;;5050609;28;20432;-71
2022/05/26 07:34:07;;;;;;;249.20;188.07;;;19.50;99.90;;;;;;5046184;28;20792;-71
2022/05/26 07:42:06;;;;;;;18.63;14.90;;;19.30;99.90;;;;;;5051732;28;20424;-72
2022/05/26 07:44:36;;;;;;;16.13;14.43;;;19.20;99.90;;;;;;5050338;28;20435;-71
2022/05/26 07:47:06;;;;;;;19.17;16.87;;;19.20;99.90;;;;;;5050732;28;20507;-71
2022/05/26 07:49:40;;;;;;;16.63;14.60;;;19.30;99.90;;;;;;5049280;28;20443;-72
2022/05/26 07:52:06;;;;;;;17.83;13.73;;;19.40;99.90;;;;;;5051534;28;20435;-71
2022/05/26 07:54:32;;;;;;;18.30;15.50;;;19.40;99.90;;;;;;5051230;28;20576;-72
2022/05/26 07:56:59;;;;;;;14.93;13.53;;;19.40;99.90;;;;;;5054139;28;20909;-74
2022/05/26 07:59:25;;;;;;;16.43;14.13;;;19.40;99.90;;;;;;5053867;28;20189;-71
2022/05/26 08:01:52;;;;;;;16.60;14.00;;;19.40;99.90;;;;;;5054173;28;20477;-71
2022/05/26 08:04:18;;;;;;;54.17;46.47;;;19.50;99.90;;;;;;5069791;28;20906;-72
2022/05/26 08:06:48;;;;;;;177.67;132.27;;;19.60;99.90;;;;;;5060228;28;20463;-71
2022/05/26 08:09:19;;;;;;;18.97;16.50;;;19.70;99.90;;;;;;5055600;28;20518;-72
2022/05/26 08:11:45;;;;;;;16.07;14.47;;;19.80;99.90;;;;;;5056685;28;20432;-72
2022/05/26 08:14:11;;;;;;;15.20;13.60;;;19.90;99.90;;;;;;5055151;28;20508;-71
2022/05/26 08:16:38;;;;;;;15.63;13.93;;;20.00;99.90;;;;;;5049587;28;20433;-72
2022/05/26 08:19:05;;;;;;;19.77;13.83;;;20.00;99.90;;;;;;5049173;28;20435;-72
2022/05/26 08:21:31;;;;;;;13.47;12.07;;;20.00;99.90;;;;;;5055558;28;20503;-72
2022/05/26 08:23:58;;;;;;;12.07;10.83;;;20.20;99.90;;;;;;5061356;28;20434;-71
2022/05/26 08:26:24;;;;;;;10.93;10.03;;;20.20;99.90;;;;;;5058534;28;20420;-71
2022/05/26 08:28:51;;;;;;;13.63;12.43;;;20.20;99.40;;;;;;5053437;28;20423;-70
2022/05/26 08:31:18;;;;;;;13.23;11.77;;;20.20;98.90;;;;;;5055394;28;20847;-71
2022/05/26 08:33:45;;;;;;;13.07;11.83;;;20.20;99.90;;;;;;5054614;28;20443;-71
2022/05/26 08:36:20;;;;;;;13.33;12.10;;;20.20;99.20;;;;;;5055052;28;20185;-71
2022/05/26 08:38:46;;;;;;;11.37;10.33;;;20.20;98.20;;;;;;5053895;28;20934;-71
2022/05/26 08:41:17;;;;;;;13.60;12.27;;;20.10;98.20;;;;;;5054973;28;20925;-71
2022/05/26 08:44:04;;;;;;;12.53;11.43;;;20.20;98.90;;;;;;5036318;28;20412;-73
2022/05/26 08:46:44;;;;;;;12.40;11.27;;;20.20;99.60;;;;;;5034376;28;20433;-72
2022/05/26 08:49:12;;;;;;;12.10;10.90;;;20.30;99.00;;;;;;5034504;28;20824;-71
2022/05/26 08:51:44;;;;;;;12.63;11.53;;;20.40;98.20;;;;;;5034229;28;20418;-73
2022/05/26 08:54:27;;;;;;;10.20;9.40;;;20.40;97.70;;;;;;5050037;28;20983;-72
2022/05/26 08:56:57;;;;;;;11.70;10.67;;;20.50;96.90;;;;;;5033648;28;20396;-71
2022/05/26 08:59:31;;;;;;;10.53;9.63;;;20.50;97.20;;;;;;5034325;28;20409;-71
2022/05/26 09:02:00;;;;;;;10.87;9.63;;;20.40;97.10;;;;;;5043014;28;20896;-71
2022/05/26 09:04:26;;;;;;;8.83;8.10;;;20.40;97.80;;;;;;5054217;28;20466;-71
2022/05/26 09:15:15;;;;;;;9.67;8.87;;;20.30;97.50;;;;;;5050554;28;20456;-72
2022/05/26 09:17:41;;;;;;;9.50;8.67;;;20.30;96.80;;;;;;5050805;28;20935;-72
2022/05/26 09:20:35;;;;;;;8.93;8.13;;;20.20;96.60;;;;;;5051600;28;20431;-72
2022/05/26 09:23:15;;;;;;;8.57;7.87;;;20.20;96.40;;;;;;5052333;28;20657;-72
2022/05/26 09:25:47;;;;;;;10.77;9.33;;;20.20;97.50;;;;;;5053078;28;20865;-71
2022/05/26 09:28:25;;;;;;;21.97;19.60;;;20.20;97.70;;;;;;5052761;28;20428;-72
2022/05/26 09:30:51;;;;;;;18.87;16.87;;;20.20;97.70;;;;;;5050091;28;20428;-72
2022/05/26 09:33:29;;;;;;;12.60;9.27;;;20.20;97.40;;;;;;5052202;28;20431;-71
2022/05/26 09:36:25;;;;;;;9.60;8.70;;;20.40;96.90;;;;;;5051722;28;20190;-72
2022/05/26 09:38:52;;;;;;;9.77;8.87;;;20.60;96.70;;;;;;5048391;28;20428;-72
2022/05/26 09:41:18;;;;;;;11.73;9.50;;;20.80;96.60;;;;;;5052314;28;20435;-71
2022/05/26 09:43:51;;;;;;;10.50;9.20;;;20.90;96.60;;;;;;5050151;28;20420;-71
2022/05/26 09:46:17;;;;;;;10.77;9.77;;;21.10;95.70;;;;;;5054408;28;20415;-71
2022/05/26 09:48:50;;;;;;;11.47;10.47;;;21.30;95.80;;;;;;5054261;28;20474;-70
2022/05/26 09:51:30;;;;;;;9.90;7.83;;;21.40;94.60;;;;;;5049649;28;20486;-69
2022/05/26 09:53:56;;;;;;;8.80;8.00;;;21.50;92.90;;;;;;5060594;28;20973;-68
2022/05/26 09:56:32;;;;;;;8.13;7.53;;;21.50;93.70;;;;;;5072559;28;20431;-68
2022/05/26 09:58:58;;;;;;;8.97;8.07;;;21.40;92.70;;;;;;5053410;28;20407;-68
2022/05/26 10:01:27;;;;;;;8.60;7.90;;;21.40;92.40;;;;;;5056447;28;20431;-68
2022/05/26 10:04:28;;;;;;;8.50;7.90;;;21.30;93.80;;;;;;5056926;28;20485;-68
2022/05/26 10:07:12;;;;;;;8.23;7.50;;;21.20;92.60;;;;;;5048628;28;20483;-68
2022/05/26 10:10:19;;;;;;;7.20;6.60;;;21.10;92.50;;;;;;5036818;28;20439;-71
2022/05/26 10:12:50;;;;;;;7.87;7.17;;;21.00;93.30;;;;;;5052459;28;20415;-68
2022/05/26 10:15:34;;;;;;;7.40;6.60;;;20.90;92.40;;;;;;5052844;28;20467;-68
2022/05/26 10:18:31;;;;;;;7.30;6.80;;;20.80;92.70;;;;;;5050854;28;20428;-68
2022/05/26 10:21:23;;;;;;;9.17;8.27;;;20.60;93.30;;;;;;5056449;28;20475;-68
2022/05/26 10:24:05;;;;;;;8.67;8.00;;;20.50;94.10;;;;;;5055431;28;20432;-68
2022/05/26 10:27:03;;;;;;;8.30;7.40;;;20.60;95.00;;;;;;5047417;28;20424;-68
2022/05/26 10:29:51;;;;;;;7.40;6.80;;;20.60;95.90;;;;;;5051622;28;20487;-68
2022/05/26 10:32:22;;;;;;;7.00;6.50;;;20.50;94.60;;;;;;5053147;28;20447;-68
2022/05/26 10:35:09;;;;;;;6.73;6.23;;;20.60;93.50;;;;;;5050990;28;20606;-68
2022/05/26 10:38:02;;;;;;;7.57;6.00;;;20.50;93.50;;;;;;5052778;28;20423;-68
2022/05/26 10:40:52;;;;;;;6.77;5.90;;;20.40;94.00;;;;;;5052952;28;20988;-68
2022/05/26 10:43:41;;;;;;;6.40;5.90;;;20.40;92.90;;;;;;5041229;28;20432;-68
2022/05/26 10:46:09;;;;;;;6.60;6.10;;;20.50;94.00;;;;;;5045766;28;20773;-69
2022/05/26 10:49:02;;;;;;;7.03;6.43;;;20.80;94.30;;;;;;5054118;28;20493;-71
2022/05/26 10:51:39;;;;;;;8.00;7.20;;;21.10;97.10;;;;;;5052599;28;20458;-71
2022/05/26 10:54:15;;;;;;;7.07;6.37;;;21.40;94.70;;;;;;5051351;28;20802;-71
2022/05/26 10:56:48;;;;;;;6.70;6.07;;;21.60;93.50;;;;;;5052173;28;20471;-72
2022/05/26 10:59:46;;;;;;;7.13;6.60;;;21.70;92.50;;;;;;5054067;28;20436;-71
2022/05/26 11:02:23;;;;;;;6.17;5.43;;;21.70;93.70;;;;;;5050002;28;20432;-71
2022/05/26 11:05:05;;;;;;;6.63;6.20;;;21.70;91.10;;;;;;5051864;28;20408;-71
2022/05/26 11:07:30;;;;;;;7.00;6.50;;;21.60;91.00;;;;;;5052644;28;20404;-72
2022/05/26 11:10:02;;;;;;;7.67;6.87;;;21.50;91.70;;;;;;5052883;28;20509;-72
2022/05/26 11:12:37;;;;;;;6.40;5.80;;;21.40;91.70;;;;;;5051079;28;20185;-72
2022/05/26 11:18:22;;;;;;;7.23;5.20;;;21.40;91.10;;;;;;5049970;28;20774;-71
2022/05/26 11:20:53;;;;;;;6.20;5.70;;;21.70;92.90;;;;;;5043688;28;20531;-72
2022/05/26 11:23:20;;;;;;;6.90;5.80;;;21.80;90.60;;;;;;5063369;28;20485;-71
2022/05/26 11:25:54;;;;;;;5.93;5.53;;;21.90;90.80;;;;;;5050174;28;20420;-76
2022/05/26 11:28:49;;;;;;;5.37;4.87;;;22.00;89.50;;;;;;5047779;28;20423;-73
2022/05/26 11:37:28;;;;;;;5.43;5.03;;;21.70;90.20;;;;;;5057726;28;20923;-72
2022/05/26 11:40:08;;;;;;;5.40;4.97;;;21.60;88.20;;;;;;5055059;28;20466;-72
2022/05/26 11:42:38;;;;;;;5.10;4.70;;;21.30;90.50;;;;;;5055753;28;20416;-72
2022/05/26 11:45:21;;;;;;;5.50;5.00;;;21.20;92.00;;;;;;5054124;28;20461;-72
2022/05/26 11:48:02;;;;;;;5.70;4.50;;;21.20;90.90;;;;;;5055963;28;20427;-71
2022/05/26 11:50:30;;;;;;;6.17;5.07;;;21.20;90.60;;;;;;5045511;28;20469;-72
2022/05/26 11:52:56;;;;;;;4.67;4.30;;;21.30;90.50;;;;;;5050032;28;20430;-72
2022/05/26 11:55:45;;;;;;;5.40;4.90;;;21.50;91.20;;;;;;5056785;28;20471;-72
2022/05/26 11:58:38;;;;;;;6.30;4.87;;;21.70;90.40;;;;;;5057502;28;20220;-71
2022/05/26 12:01:19;;;;;;;6.10;5.20;;;21.90;90.40;;;;;;5055594;28;20710;-71
2022/05/26 12:03:53;;;;;;;5.27;4.80;;;22.00;90.60;;;;;;5060951;28;20488;-73
2022/05/26 12:06:37;;;;;;;6.27;4.77;;;22.00;90.40;;;;;;5057128;28;20454;-72
2022/05/26 12:09:13;;;;;;;6.13;5.27;;;21.90;89.50;;;;;;5042945;28;20485;-72
2022/05/26 12:12:03;;;;;;;10.60;5.93;;;21.80;87.60;;;;;;5035751;28;20417;-71
2022/05/26 12:14:59;;;;;;;5.97;5.10;;;21.80;87.50;;;;;;5049260;28;20959;-71
2022/05/26 12:17:28;;;;;;;5.80;5.23;;;21.70;90.00;;;;;;5055009;28;20444;-71
2022/05/26 12:19:55;;;;;;;5.40;4.90;;;21.70;88.20;;;;;;5053691;28;20469;-71
2022/05/26 12:22:30;;;;;;;5.07;4.60;;;21.60;86.90;;;;;;5056106;28;21066;-71
2022/05/26 12:24:59;;;;;;;6.93;5.60;;;21.50;87.50;;;;;;5052569;28;20787;-72
2022/05/26 12:27:56;;;;;;;5.90;5.50;;;21.50;88.40;;;;;;5055312;28;20463;-72
2022/05/26 12:30:45;;;;;;;5.23;4.80;;;21.50;91.00;;;;;;5036841;28;20486;-72
2022/05/26 12:33:20;;;;;;;5.50;5.03;;;21.40;90.80;;;;;;5053085;28;20439;-71
2022/05/26 12:36:12;;;;;;;6.27;5.60;;;21.50;90.80;;;;;;5054914;28;20468;-72
2022/05/26 12:38:49;;;;;;;5.30;4.80;;;21.60;91.80;;;;;;5054051;28;20847;-72
2022/05/26 12:41:39;;;;;;;5.30;4.80;;;21.60;91.80;;;;;;5052430;28;20470;-71
2022/05/26 12:44:07;;;;;;;6.90;5.70;;;21.60;91.40;;;;;;5052409;28;20804;-72
2022/05/26 12:46:56;;;;;;;5.27;4.83;;;21.60;90.10;;;;;;5054592;28;20915;-71
2022/05/26 12:49:35;;;;;;;5.50;5.00;;;21.60;90.00;;;;;;5055643;28;20452;-72
2022/05/26 12:52:29;;;;;;;5.23;4.73;;;21.50;90.30;;;;;;5054458;28;20412;-72
2022/05/26 12:55:13;;;;;;;5.30;4.90;;;21.50;90.50;;;;;;5051858;28;20476;-72
2022/05/26 12:57:43;;;;;;;5.70;5.20;;;21.40;90.40;;;;;;5052727;28;20436;-72
2022/05/26 13:00:23;;;;;;;5.17;4.67;;;21.50;91.00;;;;;;5054197;28;20499;-72
2022/05/26 13:02:59;;;;;;;4.90;4.53;;;21.50;90.10;;;;;;5055570;28;20565;-72
2022/05/26 13:05:30;;;;;;;4.57;4.20;;;21.60;89.30;;;;;;5054722;28;20747;-71
2022/05/26 13:07:58;;;;;;;5.60;4.87;;;21.70;90.20;;;;;;5055011;28;20420;-72
2022/05/26 13:10:35;;;;;;;4.73;4.43;;;21.80;90.00;;;;;;5070004;28;20423;-72
2022/05/26 13:13:05;;;;;;;4.90;4.50;;;21.80;86.90;;;;;;5068678;28;20435;-72
2022/05/26 13:15:31;;;;;;;5.60;5.20;;;21.70;86.40;;;;;;5053702;28;20452;-72
2022/05/26 13:17:56;;;;;;;6.50;5.50;;;21.70;87.70;;;;;;5053979;28;20902;-72
2022/05/26 13:20:35;;;;;;;5.10;4.63;;;21.70;89.00;;;;;;5053012;28;20518;-72
2022/05/26 13:23:02;;;;;;;4.60;4.23;;;21.70;86.60;;;;;;5051395;28;20732;-71
2022/05/26 13:25:33;;;;;;;5.33;4.93;;;21.80;89.00;;;;;;5051153;28;20436;-72
2022/05/26 13:28:05;;;;;;;5.43;4.93;;;21.80;87.60;;;;;;5050604;28;20438;-71
2022/05/26 13:33:25;;;;;;;4.83;4.53;;;21.70;87.30;;;;;;5053714;28;20447;-71
2022/05/26 13:36:04;;;;;;;5.60;4.77;;;21.80;90.20;;;;;;5048470;28;20798;-70
2022/05/26 13:38:32;;;;;;;5.50;4.90;;;21.80;86.40;;;;;;5062056;28;20510;-70
2022/05/26 13:41:00;;;;;;;4.93;4.37;;;21.80;86.90;;;;;;5049716;28;20432;-71
2022/05/26 13:43:26;;;;;;;4.97;4.67;;;21.90;88.90;;;;;;5049588;28;20420;-70
2022/05/26 13:45:53;;;;;;;5.40;5.00;;;22.00;87.10;;;;;;5053186;28;20470;-77
2022/05/26 13:48:29;;;;;;;41.13;33.07;;;22.00;85.10;;;;;;5052996;28;20428;-69
2022/05/26 13:51:21;;;;;;;55.87;48.13;;;22.00;82.10;;;;;;5050838;28;20416;-71